Time;durP1;ratioP1;P1;durP2;ratioP2;P2;SDS_P1;SDS_P2;PMS_P1;PMS_P2;Temp;Humidity;BMP_temperature;BMP_pressure;BME280_temperature;BME280_humidity;BME280_pressure;Samples;Min_cycle;Max_cycle;Signal;HPM_P1;HPM_P2
2023/03/14 00:00:05;;;;;;;;;3.00;0.00;;;;;;;;5084273;27;61901;-80
2023/03/14 00:02:30;;;;;;;;;2.50;1.50;;;;;;;;5084953;28;62053;-80
2023/03/14 00:04:56;;;;;;;;;0.50;0.00;;;;;;;;5065625;27;63891;-80
2023/03/14 00:07:24;;;;;;;;;0.00;0.00;;;;;;;;5084280;28;61663;-80
2023/03/14 00:09:49;;;;;;;;;0.00;0.00;;;;;;;;5084088;28;61838;-79
2023/03/14 00:12:14;;;;;;;;;0.25;0.25;;;;;;;;5084048;27;61742;-79
2023/03/14 00:14:42;;;;;;;;;0.25;0.00;;;;;;;;5065606;28;63864;-80
2023/03/14 00:17:07;;;;;;;;;2.00;0.50;;;;;;;;5084394;28;62018;-79
2023/03/14 00:19:32;;;;;;;;;0.25;0.00;;;;;;;;5084269;27;61698;-79
2023/03/14 00:21:58;;;;;;;;;0.50;0.00;;;;;;;;5084323;28;61726;-79
2023/03/14 00:24:23;;;;;;;;;1.00;0.00;;;;;;;;5082241;27;62931;-80
2023/03/14 00:26:48;;;;;;;;;0.00;0.00;;;;;;;;5065312;28;61932;-80
2023/03/14 00:29:13;;;;;;;;;0.00;0.00;;;;;;;;5084123;27;62001;-79
2023/03/14 00:31:39;;;;;;;;;2.00;1.00;;;;;;;;5066015;28;62180;-80
2023/03/14 00:34:04;;;;;;;;;1.50;0.00;;;;;;;;5083238;27;62386;-79
2023/03/14 00:36:30;;;;;;;;;0.00;0.00;;;;;;;;5083904;27;62024;-80
2023/03/14 00:38:55;;;;;;;;;1.00;0.00;;;;;;;;5065676;27;62041;-79
2023/03/14 00:41:23;;;;;;;;;3.75;0.00;;;;;;;;5064833;28;61779;-79
2023/03/14 00:43:48;;;;;;;;;0.00;0.00;;;;;;;;5065068;28;64308;-79
2023/03/14 00:46:14;;;;;;;;;0.50;0.00;;;;;;;;5083611;28;62084;-79
2023/03/14 00:48:39;;;;;;;;;1.00;0.00;;;;;;;;5065464;28;61817;-80
2023/03/14 00:51:05;;;;;;;;;0.75;0.75;;;;;;;;5083656;27;61671;-79
2023/03/14 00:53:31;;;;;;;;;1.00;0.00;;;;;;;;5082623;27;62187;-79
2023/03/14 00:55:56;;;;;;;;;2.50;0.00;;;;;;;;5083386;28;61979;-79
2023/03/14 00:58:21;;;;;;;;;4.25;0.00;;;;;;;;5083531;27;61720;-79
2023/03/14 01:00:47;;;;;;;;;0.00;0.00;;;;;;;;5065112;28;61864;-79
2023/03/14 01:03:13;;;;;;;;;0.50;0.00;;;;;;;;5083095;28;62088;-79
2023/03/14 01:05:39;;;;;;;;;0.00;0.00;;;;;;;;5083344;28;61753;-80
2023/03/14 01:08:04;;;;;;;;;1.00;0.00;;;;;;;;5065059;28;61762;-80
2023/03/14 01:10:30;;;;;;;;;0.00;0.00;;;;;;;;5083012;28;62115;-79
2023/03/14 01:12:55;;;;;;;;;2.00;0.00;;;;;;;;5064504;28;64733;-80
2023/03/14 01:15:21;;;;;;;;;0.50;0.50;;;;;;;;5064921;28;61821;-79
2023/03/14 01:17:47;;;;;;;;;0.75;0.00;;;;;;;;5065337;28;61702;-80
2023/03/14 01:20:13;;;;;;;;;0.00;0.00;;;;;;;;5065019;28;61787;-79
2023/03/14 01:22:39;;;;;;;;;0.00;0.00;;;;;;;;5082266;27;61811;-80
2023/03/14 01:25:06;;;;;;;;;0.00;0.00;;;;;;;;5064319;28;61685;-80
2023/03/14 01:27:32;;;;;;;;;0.00;0.00;;;;;;;;5064841;28;62010;-80
2023/03/14 01:29:57;;;;;;;;;1.00;0.00;;;;;;;;5083130;28;62036;-80
2023/03/14 01:32:23;;;;;;;;;1.25;0.00;;;;;;;;5082486;27;62637;-79
2023/03/14 01:34:48;;;;;;;;;0.00;0.00;;;;;;;;5064459;28;62147;-79
2023/03/14 01:37:14;;;;;;;;;1.00;0.00;;;;;;;;5083067;27;62024;-80
2023/03/14 01:39:39;;;;;;;;;3.00;0.00;;;;;;;;5064719;28;61922;-79
2023/03/14 01:42:05;;;;;;;;;1.00;0.00;;;;;;;;5082090;28;62379;-79
2023/03/14 01:44:47;;;;;;;;;2.25;0.00;;;;;;;;5082907;28;61870;-80
2023/03/14 01:47:12;;;;;;;;;1.25;0.00;;;;;;;;5064635;28;61834;-80
2023/03/14 01:49:38;;;;;;;;;2.50;0.00;;;;;;;;5082766;28;62076;-80
2023/03/14 01:52:09;;;;;;;;;3.00;0.25;;;;;;;;5081762;27;61899;-79
2023/03/14 01:54:42;;;;;;;;;0.75;0.00;;;;;;;;5062474;28;61850;-79
2023/03/14 01:57:13;;;;;;;;;0.00;0.00;;;;;;;;5044286;28;62075;-79
2023/03/14 01:59:40;;;;;;;;;0.25;0.00;;;;;;;;5043900;28;61943;-79
2023/03/14 02:02:09;;;;;;;;;0.00;0.00;;;;;;;;5061773;28;62041;-79
2023/03/14 02:04:36;;;;;;;;;1.00;0.00;;;;;;;;5044072;28;61862;-79
2023/03/14 02:07:04;;;;;;;;;0.00;0.00;;;;;;;;5043995;28;61879;-80
2023/03/14 02:09:30;;;;;;;;;0.00;0.00;;;;;;;;5062362;28;61736;-79
2023/03/14 02:11:56;;;;;;;;;2.00;0.00;;;;;;;;5043127;28;64630;-79
2023/03/14 02:14:27;;;;;;;;;0.00;0.00;;;;;;;;5062339;28;61871;-79
2023/03/14 02:16:53;;;;;;;;;0.00;0.00;;;;;;;;5044005;28;61808;-79
2023/03/14 02:19:23;;;;;;;;;1.00;0.00;;;;;;;;5044379;28;61840;-79
2023/03/14 02:22:08;;;;;;;;;0.00;0.00;;;;;;;;5043114;28;63997;-80
2023/03/14 02:24:39;;;;;;;;;0.00;0.00;;;;;;;;5062149;28;61815;-80
2023/03/14 02:27:09;;;;;;;;;0.00;0.00;;;;;;;;5061944;28;61748;-80
2023/03/14 02:29:37;;;;;;;;;0.00;0.00;;;;;;;;5043790;28;61812;-80
2023/03/14 02:32:02;;;;;;;;;1.00;0.00;;;;;;;;5043170;28;63790;-80
2023/03/14 02:34:28;;;;;;;;;1.00;0.00;;;;;;;;5043809;28;61802;-80
2023/03/14 02:36:54;;;;;;;;;4.75;0.75;;;;;;;;5043420;28;61786;-79
2023/03/14 02:39:33;;;;;;;;;1.75;0.00;;;;;;;;5044055;28;61933;-79
2023/03/14 02:41:58;;;;;;;;;0.00;0.00;;;;;;;;5042773;28;63795;-79
2023/03/14 02:44:23;;;;;;;;;0.00;0.00;;;;;;;;5061932;28;61864;-79
2023/03/14 02:46:48;;;;;;;;;0.00;0.00;;;;;;;;5063257;28;61986;-80
2023/03/14 02:49:14;;;;;;;;;0.00;0.00;;;;;;;;5065474;28;61768;-79
2023/03/14 02:51:41;;;;;;;;;0.00;0.00;;;;;;;;5064305;28;63100;-79
2023/03/14 02:54:07;;;;;;;;;1.00;0.00;;;;;;;;5081910;27;62190;-79
2023/03/14 02:56:32;;;;;;;;;0.00;0.00;;;;;;;;5067254;28;62653;-80
2023/03/14 02:58:57;;;;;;;;;0.00;0.00;;;;;;;;5085513;27;62054;-79
2023/03/14 03:01:23;;;;;;;;;0.00;0.00;;;;;;;;5066464;28;63771;-79
2023/03/14 03:03:48;;;;;;;;;0.75;0.00;;;;;;;;5085595;27;61839;-79
2023/03/14 03:06:13;;;;;;;;;0.00;0.00;;;;;;;;5085273;27;61896;-79
2023/03/14 03:08:39;;;;;;;;;1.00;0.00;;;;;;;;5085514;28;61780;-79
2023/03/14 03:11:04;;;;;;;;;0.25;0.00;;;;;;;;5084197;27;62855;-79
2023/03/14 03:13:29;;;;;;;;;0.00;0.00;;;;;;;;5085460;27;61758;-79
2023/03/14 03:15:55;;;;;;;;;0.75;0.00;;;;;;;;5066694;28;61806;-79
2023/03/14 03:18:20;;;;;;;;;0.25;0.00;;;;;;;;5085453;27;61905;-79
2023/03/14 03:20:45;;;;;;;;;1.50;0.00;;;;;;;;5065750;28;64094;-79
2023/03/14 03:23:11;;;;;;;;;0.00;0.00;;;;;;;;5067025;28;61681;-79
2023/03/14 03:25:36;;;;;;;;;1.00;0.00;;;;;;;;5084654;27;61734;-79
2023/03/14 03:28:02;;;;;;;;;0.75;0.00;;;;;;;;5066866;28;62021;-79
2023/03/14 03:30:27;;;;;;;;;0.00;0.00;;;;;;;;5065606;28;63993;-79
2023/03/14 03:32:52;;;;;;;;;0.00;0.00;;;;;;;;5084631;27;62103;-79
2023/03/14 03:35:17;;;;;;;;;0.00;0.00;;;;;;;;5066767;28;61809;-79
2023/03/14 03:37:43;;;;;;;;;0.00;0.00;;;;;;;;5067001;28;62032;-79
2023/03/14 03:40:09;;;;;;;;;0.00;0.00;;;;;;;;5083818;28;63004;-79
2023/03/14 03:42:34;;;;;;;;;0.00;0.00;;;;;;;;5066595;28;61699;-79
2023/03/14 03:45:00;;;;;;;;;0.00;0.00;;;;;;;;5066287;28;61844;-79
2023/03/14 03:47:25;;;;;;;;;1.00;0.00;;;;;;;;5066776;28;61799;-80
2023/03/14 03:49:51;;;;;;;;;0.00;0.00;;;;;;;;5083790;28;61760;-79
2023/03/14 03:52:16;;;;;;;;;0.00;0.00;;;;;;;;5084393;27;61794;-79
2023/03/14 03:54:41;;;;;;;;;0.50;0.00;;;;;;;;5084640;28;61776;-79
2023/03/14 03:57:06;;;;;;;;;0.50;0.00;;;;;;;;5066068;28;61985;-79
2023/03/14 03:59:32;;;;;;;;;0.75;0.00;;;;;;;;5065476;28;65070;-80
2023/03/14 04:01:57;;;;;;;;;0.00;0.00;;;;;;;;5065826;28;61850;-80
2023/03/14 04:04:22;;;;;;;;;0.00;0.00;;;;;;;;5084488;27;61759;-79
2023/03/14 04:06:48;;;;;;;;;0.00;0.00;;;;;;;;5066425;27;61821;-79
2023/03/14 04:09:13;;;;;;;;;0.00;0.00;;;;;;;;5083753;27;62764;-79
2023/03/14 04:11:39;;;;;;;;;0.00;0.00;;;;;;;;5065625;27;61782;-79
2023/03/14 04:14:04;;;;;;;;;0.00;0.00;;;;;;;;5065963;28;61892;-79
2023/03/14 04:16:31;;;;;;;;;0.00;0.00;;;;;;;;5066067;28;61861;-80
2023/03/14 04:18:56;;;;;;;;;0.00;0.00;;;;;;;;5083745;27;61841;-80
2023/03/14 04:21:21;;;;;;;;;0.00;0.00;;;;;;;;5084369;27;61655;-80
2023/03/14 04:23:47;;;;;;;;;0.00;0.00;;;;;;;;5065921;28;61730;-80
2023/03/14 04:26:12;;;;;;;;;1.00;0.00;;;;;;;;5083860;27;61959;-80
2023/03/14 04:28:38;;;;;;;;;0.00;0.00;;;;;;;;5064962;28;64750;-80
2023/03/14 04:31:11;;;;;;;;;0.00;0.00;;;;;;;;5083714;27;61683;-80
2023/03/14 04:33:37;;;;;;;;;0.00;0.00;;;;;;;;5084203;27;61849;-79
2023/03/14 04:36:03;;;;;;;;;0.00;0.00;;;;;;;;5065751;28;62151;-79
2023/03/14 04:38:29;;;;;;;;;0.00;0.00;;;;;;;;5065272;28;64858;-79
2023/03/14 04:41:00;;;;;;;;;0.00;0.00;;;;;;;;5083750;27;61817;-79
2023/03/14 04:43:25;;;;;;;;;0.00;0.00;;;;;;;;5065487;27;61943;-79
2023/03/14 04:45:51;;;;;;;;;0.00;0.00;;;;;;;;5065654;28;62114;-79
2023/03/14 04:48:16;;;;;;;;;0.00;0.00;;;;;;;;5064798;28;65012;-79
2023/03/14 04:50:42;;;;;;;;;1.00;0.00;;;;;;;;5065303;28;61889;-79
2023/03/14 04:53:07;;;;;;;;;1.50;0.00;;;;;;;;5068614;28;61750;-79
2023/03/14 04:55:32;;;;;;;;;0.00;0.00;;;;;;;;5065115;28;61901;-79
2023/03/14 04:57:58;;;;;;;;;0.50;0.50;;;;;;;;5064861;28;63744;-79
2023/03/14 05:00:23;;;;;;;;;1.25;0.75;;;;;;;;5082766;27;61687;-79
2023/03/14 05:02:48;;;;;;;;;1.25;1.25;;;;;;;;5065342;27;61854;-79
2023/03/14 05:05:14;;;;;;;;;1.00;1.00;;;;;;;;5065358;28;61679;-79
2023/03/14 05:07:39;;;;;;;;;0.75;0.50;;;;;;;;5064532;28;63870;-79
2023/03/14 05:10:04;;;;;;;;;1.00;0.00;;;;;;;;5063907;28;61976;-79
2023/03/14 05:12:30;;;;;;;;;1.75;0.00;;;;;;;;5065237;28;62124;-79
2023/03/14 05:14:55;;;;;;;;;1.00;1.00;;;;;;;;5064988;28;62154;-79
2023/03/14 05:17:20;;;;;;;;;3.00;1.75;;;;;;;;5064109;28;63676;-79
2023/03/14 05:19:46;;;;;;;;;1.00;0.00;;;;;;;;5065080;28;61766;-79
2023/03/14 05:22:11;;;;;;;;;1.25;1.00;;;;;;;;5083127;27;61846;-79
2023/03/14 05:24:36;;;;;;;;;2.50;1.00;;;;;;;;5083637;27;61889;-79
2023/03/14 05:27:02;;;;;;;;;2.00;1.00;;;;;;;;5063735;28;63503;-79
2023/03/14 05:29:28;;;;;;;;;1.50;1.50;;;;;;;;5064309;28;62069;-79
2023/03/14 05:31:53;;;;;;;;;4.25;2.00;;;;;;;;5083097;27;61793;-79
2023/03/14 05:34:18;;;;;;;;;1.00;1.00;;;;;;;;5061357;28;62179;-79
2023/03/14 05:36:44;;;;;;;;;1.25;1.25;;;;;;;;5062108;28;61904;-79
2023/03/14 05:39:10;;;;;;;;;1.50;0.75;;;;;;;;5061395;28;62076;-79
2023/03/14 05:41:37;;;;;;;;;1.75;0.25;;;;;;;;5061145;28;61908;-79
2023/03/14 05:44:03;;;;;;;;;2.50;2.50;;;;;;;;5061603;28;61868;-79
2023/03/14 05:46:30;;;;;;;;;2.00;2.00;;;;;;;;5061922;28;63092;-79
2023/03/14 05:48:56;;;;;;;;;1.50;1.25;;;;;;;;5061279;28;61706;-79
2023/03/14 05:51:21;;;;;;;;;1.50;1.50;;;;;;;;5062229;28;61865;-79
2023/03/14 05:53:46;;;;;;;;;2.00;1.25;;;;;;;;5062510;28;62125;-79
2023/03/14 05:56:12;;;;;;;;;2.75;2.00;;;;;;;;5060230;28;65123;-79
2023/03/14 05:58:38;;;;;;;;;4.50;2.50;;;;;;;;5060430;28;61786;-79
2023/03/14 06:01:04;;;;;;;;;1.00;1.00;;;;;;;;5061023;28;61999;-79
2023/03/14 06:03:30;;;;;;;;;2.00;2.00;;;;;;;;5061942;28;61796;-79
2023/03/14 06:05:55;;;;;;;;;2.00;2.00;;;;;;;;5060316;28;63323;-79
2023/03/14 06:08:21;;;;;;;;;1.00;1.00;;;;;;;;5060902;28;62033;-81
2023/03/14 06:10:48;;;;;;;;;2.25;1.00;;;;;;;;5062706;28;61723;-80
2023/03/14 06:13:15;;;;;;;;;1.00;1.00;;;;;;;;5063208;28;61673;-81
2023/03/14 06:15:40;;;;;;;;;1.00;1.00;;;;;;;;5062769;28;62899;-80
2023/03/14 06:18:05;;;;;;;;;1.00;1.00;;;;;;;;5060867;28;62220;-80
2023/03/14 06:20:32;;;;;;;;;1.00;1.00;;;;;;;;5064125;28;61878;-80
2023/03/14 06:22:58;;;;;;;;;2.75;1.00;;;;;;;;5066376;28;62069;-78
2023/03/14 06:25:23;;;;;;;;;5.50;3.00;;;;;;;;5063325;28;63956;-81
2023/03/14 06:27:48;;;;;;;;;3.50;1.50;;;;;;;;5066537;28;61726;-82
2023/03/14 06:30:14;;;;;;;;;2.75;2.00;;;;;;;;5064405;28;62182;-81
2023/03/14 06:32:39;;;;;;;;;1.25;1.25;;;;;;;;5066218;28;61906;-81
2023/03/14 06:35:04;;;;;;;;;5.25;3.50;;;;;;;;5085196;27;61911;-79
2023/03/14 06:37:30;;;;;;;;;2.00;2.00;;;;;;;;5085629;27;62054;-79
2023/03/14 06:39:55;;;;;;;;;3.00;0.75;;;;;;;;5085635;27;61908;-82
2023/03/14 06:42:21;;;;;;;;;2.50;1.00;;;;;;;;5084193;27;61823;-81
2023/03/14 06:44:46;;;;;;;;;2.00;2.00;;;;;;;;5061038;27;64399;-81
2023/03/14 06:47:12;;;;;;;;;2.00;2.00;;;;;;;;5066865;28;61866;-79
2023/03/14 06:49:37;;;;;;;;;5.00;2.00;;;;;;;;5085217;28;61693;-79
2023/03/14 06:52:02;;;;;;;;;1.50;1.50;;;;;;;;5050314;28;61940;-79
2023/03/14 06:54:28;;;;;;;;;3.25;2.00;;;;;;;;5065747;28;64168;-78
2023/03/14 06:56:53;;;;;;;;;2.75;1.00;;;;;;;;5085158;27;61674;-78
2023/03/14 06:59:19;;;;;;;;;4.00;1.00;;;;;;;;5066860;28;62302;-78
2023/03/14 07:01:44;;;;;;;;;1.50;1.50;;;;;;;;5050551;28;61831;-77
2023/03/14 07:04:09;;;;;;;;;1.75;0.25;;;;;;;;5064561;28;62947;-77
2023/03/14 07:06:34;;;;;;;;;2.75;1.00;;;;;;;;5046785;28;61704;-77
2023/03/14 07:09:00;;;;;;;;;1.00;1.00;;;;;;;;5065041;28;61712;-77
2023/03/14 07:11:26;;;;;;;;;1.75;1.75;;;;;;;;5046045;28;61966;-77
2023/03/14 07:13:51;;;;;;;;;2.00;0.75;;;;;;;;5046082;28;64606;-77
2023/03/14 07:16:16;;;;;;;;;3.00;1.25;;;;;;;;5046622;28;61761;-77
2023/03/14 07:18:41;;;;;;;;;1.00;1.00;;;;;;;;5066645;28;61676;-78
2023/03/14 07:21:08;;;;;;;;;1.75;1.75;;;;;;;;5047402;28;61886;-78
2023/03/14 07:23:34;;;;;;;;;1.00;1.00;;;;;;;;5064033;28;61912;-77
2023/03/14 07:25:59;;;;;;;;;1.00;0.25;;;;;;;;5064178;28;61728;-78
2023/03/14 07:28:25;;;;;;;;;0.00;0.00;;;;;;;;5046845;28;61968;-78
2023/03/14 07:30:50;;;;;;;;;2.25;0.00;;;;;;;;5082461;27;61881;-79
2023/03/14 07:33:15;;;;;;;;;2.50;1.00;;;;;;;;5069342;28;63823;-79
2023/03/14 07:35:40;;;;;;;;;4.50;0.25;;;;;;;;5083910;27;62130;-80
2023/03/14 07:38:06;;;;;;;;;2.00;0.00;;;;;;;;5102786;27;61866;-79
2023/03/14 07:40:31;;;;;;;;;2.00;1.00;;;;;;;;5066501;28;62199;-79
2023/03/14 07:42:57;;;;;;;;;6.00;1.00;;;;;;;;5077535;27;61920;-80
2023/03/14 07:45:22;;;;;;;;;2.25;2.00;;;;;;;;5057228;28;61799;-78
2023/03/14 07:47:47;;;;;;;;;1.25;1.00;;;;;;;;5072359;27;62049;-79
2023/03/14 07:50:13;;;;;;;;;1.00;1.00;;;;;;;;5044548;28;61791;-80
2023/03/14 07:52:38;;;;;;;;;3.50;1.00;;;;;;;;5075709;28;61964;-78
2023/03/14 07:55:03;;;;;;;;;2.00;1.00;;;;;;;;5073193;27;61794;-78
2023/03/14 07:57:29;;;;;;;;;3.00;0.00;;;;;;;;5083515;27;61927;-80
2023/03/14 07:59:54;;;;;;;;;2.00;1.00;;;;;;;;5082518;27;61807;-79
2023/03/14 08:02:22;;;;;;;;;1.00;1.00;;;;;;;;5076384;27;65027;-79
2023/03/14 08:04:47;;;;;;;;;0.00;0.00;;;;;;;;5084178;27;62091;-80
2023/03/14 08:07:12;;;;;;;;;1.00;1.00;;;;;;;;5065935;28;61931;-80
2023/03/14 08:09:38;;;;;;;;;3.50;0.25;;;;;;;;5065775;28;61893;-80
2023/03/14 08:12:03;;;;;;;;;5.25;0.00;;;;;;;;5064693;27;64430;-80
2023/03/14 08:14:29;;;;;;;;;4.00;1.00;;;;;;;;5086880;27;62001;-79
2023/03/14 08:16:54;;;;;;;;;1.50;1.50;;;;;;;;5084034;28;61840;-79
2023/03/14 08:19:20;;;;;;;;;2.75;0.50;;;;;;;;5083632;27;61823;-79
2023/03/14 08:21:45;;;;;;;;;1.00;1.00;;;;;;;;5082749;28;62604;-78
2023/03/14 08:24:11;;;;;;;;;2.25;1.00;;;;;;;;5083891;27;61725;-78
2023/03/14 08:26:36;;;;;;;;;2.50;1.00;;;;;;;;5083445;27;61838;-79
2023/03/14 08:29:04;;;;;;;;;3.00;2.00;;;;;;;;5065486;27;62219;-79
2023/03/14 08:31:29;;;;;;;;;4.00;1.00;;;;;;;;5082977;28;62070;-78
2023/03/14 08:33:55;;;;;;;;;2.00;1.00;;;;;;;;5061972;28;61778;-79
2023/03/14 08:36:21;;;;;;;;;3.75;1.00;;;;;;;;5062063;28;61829;-80
2023/03/14 08:38:46;;;;;;;;;3.75;0.50;;;;;;;;5073960;27;61780;-80
2023/03/14 08:41:12;;;;;;;;;3.00;1.00;;;;;;;;5069170;27;62162;-80
2023/03/14 08:43:37;;;;;;;;;3.00;0.00;;;;;;;;5060900;28;62112;-80
2023/03/14 08:46:02;;;;;;;;;5.00;1.00;;;;;;;;5062615;28;61762;-80
2023/03/14 08:48:29;;;;;;;;;0.00;0.00;;;;;;;;5063554;28;61754;-80
2023/03/14 08:50:54;;;;;;;;;1.75;0.25;;;;;;;;5061958;28;62669;-79
2023/03/14 08:53:22;;;;;;;;;1.00;1.00;;;;;;;;5061126;28;61718;-78
2023/03/14 08:55:47;;;;;;;;;2.00;0.75;;;;;;;;5062989;28;62154;-79
2023/03/14 08:58:12;;;;;;;;;1.00;1.00;;;;;;;;5061055;28;62544;-82
2023/03/14 09:00:38;;;;;;;;;1.00;1.00;;;;;;;;5062641;28;63379;-80
2023/03/14 09:03:03;;;;;;;;;5.75;2.00;;;;;;;;5061243;28;61870;-82
2023/03/14 09:05:28;;;;;;;;;3.00;1.25;;;;;;;;5062428;28;61944;-81
2023/03/14 09:07:54;;;;;;;;;3.75;1.50;;;;;;;;5061340;28;61880;-80
2023/03/14 09:10:19;;;;;;;;;1.75;1.75;;;;;;;;5060529;28;63823;-79
2023/03/14 09:12:44;;;;;;;;;1.50;0.75;;;;;;;;5060829;28;61806;-80
2023/03/14 09:15:10;;;;;;;;;1.25;1.25;;;;;;;;5062729;28;61817;-79
2023/03/14 09:17:35;;;;;;;;;2.00;0.00;;;;;;;;5061558;28;61935;-79
2023/03/14 09:20:01;;;;;;;;;0.75;0.50;;;;;;;;5062189;28;61813;-80
2023/03/14 09:22:26;;;;;;;;;0.00;0.00;;;;;;;;5062610;28;61906;-80
2023/03/14 09:24:51;;;;;;;;;0.75;0.75;;;;;;;;5062833;28;61926;-80
2023/03/14 09:27:17;;;;;;;;;1.00;0.00;;;;;;;;5061009;28;62007;-79
2023/03/14 09:29:42;;;;;;;;;1.00;1.00;;;;;;;;5060456;28;63776;-78
2023/03/14 09:32:08;;;;;;;;;1.00;0.00;;;;;;;;5057398;28;61873;-79
2023/03/14 09:34:33;;;;;;;;;2.00;1.00;;;;;;;;5060394;28;61878;-79
2023/03/14 09:36:59;;;;;;;;;1.75;0.00;;;;;;;;5062588;28;61760;-79
2023/03/14 09:39:24;;;;;;;;;1.00;0.00;;;;;;;;5060181;28;63930;-78
2023/03/14 09:41:51;;;;;;;;;0.00;0.00;;;;;;;;5057769;28;62010;-80
2023/03/14 09:44:21;;;;;;;;;1.50;0.50;;;;;;;;5049011;28;61882;-78
2023/03/14 09:46:49;;;;;;;;;0.00;0.00;;;;;;;;5063047;28;61893;-79
2023/03/14 09:49:23;;;;;;;;;0.00;0.00;;;;;;;;5061671;28;63315;-79
2023/03/14 09:51:51;;;;;;;;;0.00;0.00;;;;;;;;5063280;28;61950;-80
2023/03/14 09:54:55;;;;;;;;;1.75;0.00;;;;;;;;5063943;27;61786;-80
2023/03/14 09:57:23;;;;;;;;;1.75;0.00;;;;;;;;4983012;28;62159;-79
2023/03/14 09:59:49;;;;;;;;;1.00;0.00;;;;;;;;4982768;28;63615;-81
2023/03/14 10:02:17;;;;;;;;;1.00;0.00;;;;;;;;4982632;28;61873;-80
2023/03/14 10:04:44;;;;;;;;;1.00;0.00;;;;;;;;4982900;28;61864;-79
2023/03/14 10:07:13;;;;;;;;;2.00;0.00;;;;;;;;4983440;28;61952;-78
2023/03/14 10:09:38;;;;;;;;;0.00;0.00;;;;;;;;4982367;28;64285;-80
2023/03/14 10:12:06;;;;;;;;;0.75;0.75;;;;;;;;4999392;28;61830;-80
2023/03/14 10:14:33;;;;;;;;;2.50;0.75;;;;;;;;4999598;28;62189;-78
2023/03/14 10:17:05;;;;;;;;;3.75;1.00;;;;;;;;4999602;28;62074;-78
2023/03/14 10:19:30;;;;;;;;;2.50;0.00;;;;;;;;4981966;28;64254;-78
2023/03/14 10:21:56;;;;;;;;;0.00;0.00;;;;;;;;4982351;28;61949;-80
2023/03/14 10:24:21;;;;;;;;;1.75;0.00;;;;;;;;4999624;28;62280;-80
2023/03/14 10:26:52;;;;;;;;;3.50;0.00;;;;;;;;4998886;28;62000;-79
2023/03/14 10:29:18;;;;;;;;;0.00;0.00;;;;;;;;5060266;28;64119;-80
2023/03/14 10:32:03;;;;;;;;;0.00;0.00;;;;;;;;5061142;28;61993;-80
2023/03/14 10:34:30;;;;;;;;;2.00;0.00;;;;;;;;5060103;28;61859;-81
2023/03/14 10:37:05;;;;;;;;;1.00;0.00;;;;;;;;5057401;28;62246;-79
2023/03/14 10:39:38;;;;;;;;;0.00;0.00;;;;;;;;5058044;28;63021;-80
2023/03/14 10:42:13;;;;;;;;;1.75;0.00;;;;;;;;5061302;28;62012;-80
2023/03/14 10:44:38;;;;;;;;;0.25;0.00;;;;;;;;5061802;28;61862;-80
2023/03/14 10:47:04;;;;;;;;;0.25;0.00;;;;;;;;5062073;28;61826;-79
2023/03/14 10:49:38;;;;;;;;;0.50;0.50;;;;;;;;5053065;28;63035;-80
2023/03/14 10:52:07;;;;;;;;;1.00;0.00;;;;;;;;5039972;28;61736;-81
2023/03/14 10:54:32;;;;;;;;;3.00;0.25;;;;;;;;5041394;28;62026;-80
2023/03/14 10:56:58;;;;;;;;;2.50;0.00;;;;;;;;5041390;28;61912;-81
2023/03/14 10:59:24;;;;;;;;;1.00;0.00;;;;;;;;5039034;28;64849;-81
2023/03/14 11:01:49;;;;;;;;;1.75;0.50;;;;;;;;5039791;28;61860;-81
2023/03/14 11:04:14;;;;;;;;;0.00;0.00;;;;;;;;5039728;28;62220;-81
2023/03/14 11:06:48;;;;;;;;;1.50;1.00;;;;;;;;5042625;28;61883;-80
2023/03/14 11:09:14;;;;;;;;;0.00;0.00;;;;;;;;5045862;28;64756;-83
2023/03/14 11:12:10;;;;;;;;;0.00;0.00;;;;;;;;5045292;28;61947;-83
2023/03/14 11:14:40;;;;;;;;;0.00;0.00;;;;;;;;5044374;28;61815;-83
2023/03/14 11:17:18;;;;;;;;;0.00;0.00;;;;;;;;5043950;28;62023;-83
2023/03/14 11:20:04;;;;;;;;;1.75;0.50;;;;;;;;5043178;28;63864;-80
2023/03/14 11:22:37;;;;;;;;;1.00;1.00;;;;;;;;5044988;28;62099;-82
2023/03/14 11:25:16;;;;;;;;;0.25;0.00;;;;;;;;5043772;28;61808;-82
2023/03/14 11:27:43;;;;;;;;;1.50;0.00;;;;;;;;5048110;28;61944;-82
2023/03/14 11:30:19;;;;;;;;;0.50;0.00;;;;;;;;5045372;28;64747;-82
2023/03/14 11:32:47;;;;;;;;;0.50;0.50;;;;;;;;5048679;28;61983;-80
2023/03/14 11:35:16;;;;;;;;;1.00;0.00;;;;;;;;5067469;28;61825;-81
2023/03/14 11:37:45;;;;;;;;;3.00;0.00;;;;;;;;5068931;28;61868;-80
2023/03/14 11:40:17;;;;;;;;;3.00;1.00;;;;;;;;5069648;28;63713;-82
2023/03/14 11:42:44;;;;;;;;;0.00;0.00;;;;;;;;5068136;28;61771;-83
2023/03/14 11:45:22;;;;;;;;;4.00;0.00;;;;;;;;5086163;28;61822;-83
2023/03/14 11:47:51;;;;;;;;;1.75;0.00;;;;;;;;5069328;28;61694;-82
2023/03/14 11:50:18;;;;;;;;;0.50;0.00;;;;;;;;5069195;27;63801;-81
2023/03/14 11:52:50;;;;;;;;;0.00;0.00;;;;;;;;5062504;28;61750;-81
2023/03/14 11:55:20;;;;;;;;;1.25;0.00;;;;;;;;5068881;28;61872;-81
2023/03/14 11:57:47;;;;;;;;;0.00;0.00;;;;;;;;5086810;27;61676;-81
2023/03/14 12:00:21;;;;;;;;;0.00;0.00;;;;;;;;5087193;27;63003;-82
2023/03/14 12:02:53;;;;;;;;;0.00;0.00;;;;;;;;5086657;27;62009;-82
2023/03/14 12:05:18;;;;;;;;;1.00;0.00;;;;;;;;5086553;28;61693;-82
2023/03/14 12:07:49;;;;;;;;;0.00;0.00;;;;;;;;5085796;28;61515;-82
2023/03/14 12:10:15;;;;;;;;;3.00;0.00;;;;;;;;5085186;27;63820;-82
2023/03/14 12:12:40;;;;;;;;;1.00;0.00;;;;;;;;5085094;27;61705;-82
2023/03/14 12:15:17;;;;;;;;;0.00;0.00;;;;;;;;5086271;27;61762;-80
2023/03/14 12:17:43;;;;;;;;;0.50;0.50;;;;;;;;5087816;27;62453;-82
2023/03/14 12:20:14;;;;;;;;;0.25;0.00;;;;;;;;5086383;27;62048;-81
2023/03/14 12:23:06;;;;;;;;;1.50;1.00;;;;;;;;5084481;28;61777;-83
2023/03/14 12:25:32;;;;;;;;;0.00;0.00;;;;;;;;5073432;27;61671;-83
2023/03/14 12:27:57;;;;;;;;;2.00;0.00;;;;;;;;5054691;28;62498;-86
2023/03/14 12:30:34;;;;;;;;;1.00;0.00;;;;;;;;5045525;28;63963;-84
2023/03/14 12:33:09;;;;;;;;;0.00;0.00;;;;;;;;5064330;27;61443;-80
2023/03/14 12:35:34;;;;;;;;;0.00;0.00;;;;;;;;5065995;28;61941;-79
2023/03/14 12:38:04;;;;;;;;;0.00;0.00;;;;;;;;5083799;28;61790;-80
2023/03/14 12:40:35;;;;;;;;;0.00;0.00;;;;;;;;5083204;28;63179;-79
2023/03/14 12:43:01;;;;;;;;;3.00;0.00;;;;;;;;5064743;27;61834;-79
2023/03/14 12:45:30;;;;;;;;;0.50;0.50;;;;;;;;5064866;28;61737;-78
2023/03/14 12:47:59;;;;;;;;;5.25;3.25;;;;;;;;5065338;28;61832;-79
2023/03/14 12:50:31;;;;;;;;;0.00;0.00;;;;;;;;5083234;28;62112;-80
2023/03/14 12:52:56;;;;;;;;;1.00;0.00;;;;;;;;5064595;28;61972;-79
2023/03/14 12:55:30;;;;;;;;;3.50;2.00;;;;;;;;5064905;28;61880;-79
2023/03/14 12:58:00;;;;;;;;;0.00;0.00;;;;;;;;5083050;28;61858;-79
2023/03/14 13:00:33;;;;;;;;;0.00;0.00;;;;;;;;5082492;27;61882;-79
2023/03/14 13:03:17;;;;;;;;;0.00;0.00;;;;;;;;5083018;27;62082;-80
2023/03/14 13:05:57;;;;;;;;;1.00;0.00;;;;;;;;5065051;28;61844;-79
2023/03/14 13:08:33;;;;;;;;;1.00;0.00;;;;;;;;5065449;28;61837;-79
2023/03/14 13:10:59;;;;;;;;;0.75;0.00;;;;;;;;5063217;28;63756;-79
2023/03/14 13:13:26;;;;;;;;;1.25;0.00;;;;;;;;5083008;27;62111;-79
2023/03/14 13:16:00;;;;;;;;;0.00;0.00;;;;;;;;5065271;28;62013;-80
2023/03/14 13:18:31;;;;;;;;;2.50;0.00;;;;;;;;5065139;28;61762;-80
2023/03/14 13:21:00;;;;;;;;;0.00;0.00;;;;;;;;5078850;28;62061;-78
2023/03/14 13:23:27;;;;;;;;;0.00;0.00;;;;;;;;5063973;27;61845;-80
2023/03/14 13:25:53;;;;;;;;;0.00;0.00;;;;;;;;5048767;28;61952;-78
2023/03/14 13:28:19;;;;;;;;;2.75;0.00;;;;;;;;5062762;28;61835;-78
2023/03/14 13:30:48;;;;;;;;;1.00;0.00;;;;;;;;5046190;28;63648;-78
2023/03/14 13:33:18;;;;;;;;;0.00;0.00;;;;;;;;5057068;28;61751;-77
2023/03/14 13:35:47;;;;;;;;;1.25;0.00;;;;;;;;5041119;28;62163;-79
2023/03/14 13:38:15;;;;;;;;;0.00;0.00;;;;;;;;5043823;28;61867;-79
2023/03/14 13:40:42;;;;;;;;;2.50;0.00;;;;;;;;5040467;28;64070;-79
2023/03/14 13:43:16;;;;;;;;;0.00;0.00;;;;;;;;5049670;28;62033;-79
2023/03/14 13:45:49;;;;;;;;;0.75;0.00;;;;;;;;5042148;28;61811;-79
2023/03/14 13:48:15;;;;;;;;;0.00;0.00;;;;;;;;5042363;28;62143;-80
2023/03/14 13:50:44;;;;;;;;;2.00;0.00;;;;;;;;5040155;28;64968;-80
2023/03/14 13:53:11;;;;;;;;;1.25;0.00;;;;;;;;5053925;28;61770;-79
2023/03/14 13:55:36;;;;;;;;;1.75;0.00;;;;;;;;5059789;28;61852;-81
2023/03/14 13:58:01;;;;;;;;;0.00;0.00;;;;;;;;5051040;28;62019;-80
2023/03/14 14:00:27;;;;;;;;;0.00;0.00;;;;;;;;5049231;28;63639;-80
2023/03/14 14:02:57;;;;;;;;;0.50;0.00;;;;;;;;5052534;28;62097;-78
2023/03/14 14:05:26;;;;;;;;;0.00;0.00;;;;;;;;5058941;28;61780;-77
2023/03/14 14:07:52;;;;;;;;;0.25;0.00;;;;;;;;5057727;28;61917;-86
2023/03/14 14:10:17;;;;;;;;;0.00;0.00;;;;;;;;5051095;28;63634;-79
2023/03/14 14:12:49;;;;;;;;;0.00;0.00;;;;;;;;5060049;28;62044;-78
2023/03/14 14:15:23;;;;;;;;;0.00;0.00;;;;;;;;5056290;28;61824;-79
2023/03/14 14:17:52;;;;;;;;;0.00;0.00;;;;;;;;5045698;28;62085;-79
2023/03/14 14:20:22;;;;;;;;;0.00;0.00;;;;;;;;5039672;28;64132;-80
2023/03/14 14:22:48;;;;;;;;;0.00;0.00;;;;;;;;5041834;28;62085;-81
2023/03/14 14:25:14;;;;;;;;;0.00;0.00;;;;;;;;5040914;28;61868;-80
2023/03/14 14:27:42;;;;;;;;;0.50;0.00;;;;;;;;5040207;28;62215;-81
2023/03/14 14:30:16;;;;;;;;;0.00;0.00;;;;;;;;5041077;28;64052;-80
2023/03/14 14:32:41;;;;;;;;;2.25;0.75;;;;;;;;5048503;28;61969;-81
2023/03/14 14:35:09;;;;;;;;;0.00;0.00;;;;;;;;5062074;28;61766;-79
2023/03/14 14:37:41;;;;;;;;;0.00;0.00;;;;;;;;5061939;28;61707;-80
2023/03/14 14:40:08;;;;;;;;;0.75;0.00;;;;;;;;5060887;28;61974;-80
2023/03/14 14:42:34;;;;;;;;;0.00;0.00;;;;;;;;5062584;28;61855;-80